createdAt,value
2018-07-01T00:00:46.865Z,22.70
2018-07-01T00:02:48.840Z,22.70
2018-07-01T00:04:50.800Z,22.60
2018-07-01T00:06:52.765Z,22.60
2018-07-01T00:08:54.748Z,22.50
2018-07-01T00:10:56.732Z,22.50
2018-07-01T00:12:58.691Z,22.50
2018-07-01T00:15:00.662Z,22.50
2018-07-01T00:17:02.652Z,22.50
2018-07-01T00:19:04.958Z,22.50
2018-07-01T00:21:06.948Z,22.50
2018-07-01T00:23:08.912Z,22.50
2018-07-01T00:25:10.890Z,22.50
2018-07-01T00:27:12.877Z,22.50
2018-07-01T00:29:14.854Z,22.50
2018-07-01T00:31:16.828Z,22.50
2018-07-01T00:33:18.836Z,22.50
2018-07-01T00:35:20.802Z,22.50
2018-07-01T00:37:22.780Z,22.40
2018-07-01T00:39:24.780Z,22.50
2018-07-01T00:41:26.757Z,22.40
2018-07-01T00:43:28.724Z,22.40
2018-07-01T00:45:30.773Z,22.40
2018-07-01T00:47:32.755Z,22.40
2018-07-01T00:49:34.722Z,22.40
2018-07-01T00:51:36.695Z,22.40
2018-07-01T00:53:38.688Z,22.40
2018-07-01T00:55:40.689Z,22.40
2018-07-01T00:57:42.645Z,22.40
2018-07-01T00:59:44.623Z,22.40
2018-07-01T01:01:46.589Z,22.40
2018-07-01T01:03:48.568Z,22.40
2018-07-01T01:05:50.807Z,22.40
2018-07-01T01:07:52.785Z,22.40
2018-07-01T01:09:54.767Z,22.40
2018-07-01T01:11:56.743Z,22.40
2018-07-01T01:13:58.753Z,22.40
2018-07-01T01:16:00.713Z,22.40
2018-07-01T01:18:02.693Z,22.40
2018-07-01T01:20:04.676Z,22.40
2018-07-01T01:22:06.665Z,22.40
2018-07-01T01:24:08.987Z,22.40
2018-07-01T01:26:10.949Z,22.30
2018-07-01T01:28:12.926Z,22.30
2018-07-01T01:30:14.917Z,22.30
2018-07-01T01:32:16.885Z,22.30
2018-07-01T01:34:18.861Z,22.30
2018-07-01T01:36:20.845Z,22.30
2018-07-01T01:38:22.813Z,22.30
2018-07-01T01:40:24.783Z,22.30
2018-07-01T01:42:26.773Z,22.30
2018-07-01T01:44:28.758Z,22.30
2018-07-01T01:46:30.744Z,22.30
2018-07-01T01:48:32.716Z,22.20
2018-07-01T01:50:34.704Z,22.30
2018-07-01T01:52:36.681Z,22.30
2018-07-01T01:54:38.651Z,22.20
2018-07-01T01:56:40.649Z,22.20
2018-07-01T01:58:42.622Z,22.20
2018-07-01T02:00:44.577Z,22.20
2018-07-01T02:02:46.556Z,22.30
2018-07-01T02:06:50.787Z,22.40
2018-07-01T02:08:52.831Z,22.40
2018-07-01T02:10:54.770Z,22.50
2018-07-01T02:12:56.748Z,22.50
2018-07-01T02:14:58.710Z,22.50
2018-07-01T02:17:00.737Z,22.40
2018-07-01T02:19:02.684Z,22.40
2018-07-01T02:21:04.653Z,22.30
2018-07-01T02:23:06.713Z,22.30
2018-07-01T02:25:08.688Z,22.20
2018-07-01T02:27:10.660Z,22.20
2018-07-01T02:29:12.640Z,22.20
2018-07-01T02:31:14.603Z,22.20
2018-07-01T02:33:16.600Z,22.20
2018-07-01T02:35:18.630Z,22.10
2018-07-01T02:37:20.561Z,22.20
2018-07-01T02:39:22.543Z,22.10
2018-07-01T02:41:24.536Z,22.20
2018-07-01T02:43:26.543Z,22.20
2018-07-01T02:45:28.536Z,22.10
2018-07-01T02:47:30.500Z,22.10
2018-07-01T02:49:32.485Z,22.10
2018-07-01T02:51:34.450Z,22.10
2018-07-01T02:53:36.500Z,22.10
2018-07-01T02:55:38.444Z,22.10
2018-07-01T02:57:40.424Z,22.10
2018-07-01T02:59:42.408Z,22.10
2018-07-01T03:01:44.374Z,22.10
2018-07-01T03:03:46.355Z,22.10
2018-07-01T03:05:48.335Z,22.10
2018-07-01T03:07:50.298Z,22.10
2018-07-01T03:09:52.306Z,22.10
2018-07-01T03:11:54.276Z,22.10
2018-07-01T03:13:56.244Z,22.10
2018-07-01T03:15:58.226Z,22.10
2018-07-01T03:18:00.213Z,22.10
2018-07-01T03:20:02.209Z,22.10
2018-07-01T03:22:04.186Z,22.10
2018-07-01T03:24:06.232Z,22.10
2018-07-01T03:26:08.200Z,22.00
2018-07-01T03:28:10.162Z,22.10
2018-07-01T03:30:12.126Z,22.10
2018-07-01T03:32:14.099Z,22.10
2018-07-01T03:34:16.076Z,22.10
2018-07-01T03:36:18.072Z,22.10
2018-07-01T03:38:20.028Z,22.10
2018-07-01T03:40:22.005Z,22.10
2018-07-01T03:42:23.980Z,22.10
2018-07-01T03:44:25.958Z,22.10
2018-07-01T03:46:27.933Z,22.20
2018-07-01T03:48:29.895Z,22.20
2018-07-01T03:50:31.863Z,22.20
2018-07-01T03:52:33.835Z,22.10
2018-07-01T03:54:35.787Z,22.10
2018-07-01T03:56:37.779Z,22.10
2018-07-01T03:58:39.737Z,22.20
2018-07-01T04:00:41.714Z,22.10
2018-07-01T04:02:43.704Z,22.10
2018-07-01T04:04:45.680Z,22.20
2018-07-01T04:06:47.644Z,22.20
2018-07-01T04:08:49.633Z,22.10
2018-07-01T04:10:51.607Z,22.20
2018-07-01T04:12:53.599Z,22.10
2018-07-01T04:14:55.583Z,22.20
2018-07-01T04:16:57.547Z,22.20
2018-07-01T04:18:59.527Z,22.10
2018-07-01T04:21:01.497Z,22.10
2018-07-01T04:23:03.471Z,22.10
2018-07-01T04:25:05.443Z,22.00
2018-07-01T04:27:07.395Z,22.00
2018-07-01T04:29:09.365Z,22.20
2018-07-01T04:31:11.436Z,22.20
2018-07-01T04:33:13.335Z,22.30
2018-07-01T04:35:15.319Z,22.40
2018-07-01T04:37:17.301Z,22.50
2018-07-01T04:39:19.274Z,22.50
2018-07-01T04:41:21.264Z,22.50
2018-07-01T04:43:23.233Z,22.50
2018-07-01T04:45:25.207Z,22.50
2018-07-01T04:47:27.161Z,22.30
2018-07-01T04:49:29.159Z,22.30
2018-07-01T04:51:31.222Z,22.20
2018-07-01T04:53:33.184Z,22.10
2018-07-01T04:55:35.152Z,22.10
2018-07-01T04:57:37.126Z,22.10
2018-07-01T04:59:39.103Z,22.10
2018-07-01T05:01:41.073Z,22.00
2018-07-01T05:03:43.056Z,22.10
2018-07-01T05:05:45.049Z,22.10
2018-07-01T05:07:47.019Z,22.10
2018-07-01T05:09:49.012Z,22.10
2018-07-01T05:11:50.974Z,22.20
2018-07-01T05:13:52.956Z,22.10
2018-07-01T05:15:54.931Z,22.20
2018-07-01T05:17:56.899Z,22.20
2018-07-01T05:19:58.882Z,22.20
2018-07-01T05:22:00.859Z,22.20
2018-07-01T05:24:02.846Z,22.10
2018-07-01T05:26:04.805Z,22.10
2018-07-01T05:28:06.765Z,22.10
2018-07-01T05:32:10.977Z,22.10
2018-07-01T05:34:12.959Z,22.10
2018-07-01T05:36:14.936Z,22.10
2018-07-01T05:38:16.917Z,22.10
2018-07-01T05:40:18.877Z,22.10
2018-07-01T05:42:20.849Z,22.10
2018-07-01T05:44:22.837Z,22.10
2018-07-01T05:46:24.823Z,22.00
2018-07-01T05:48:26.771Z,22.10
2018-07-01T05:50:28.745Z,22.00
2018-07-01T05:52:30.713Z,22.10
2018-07-01T05:54:32.703Z,22.00
2018-07-01T05:56:34.701Z,22.00
2018-07-01T05:58:36.673Z,22.00
2018-07-01T06:00:38.653Z,22.00
2018-07-01T06:02:40.631Z,22.00
2018-07-01T06:04:42.597Z,22.00
2018-07-01T06:06:44.574Z,22.00
2018-07-01T06:08:46.608Z,22.00
2018-07-01T06:10:48.517Z,22.00
2018-07-01T06:12:50.498Z,22.00
2018-07-01T06:14:52.506Z,22.00
2018-07-01T06:16:54.534Z,22.00
2018-07-01T06:18:56.473Z,22.00
2018-07-01T06:20:58.435Z,22.00
2018-07-01T06:23:00.433Z,22.00
2018-07-01T06:25:02.397Z,22.00
2018-07-01T06:27:04.365Z,22.00
2018-07-01T06:29:06.335Z,22.00
2018-07-01T06:31:08.314Z,22.00
2018-07-01T06:33:10.368Z,22.00
2018-07-01T06:35:12.335Z,22.00
2018-07-01T06:37:14.334Z,22.00
2018-07-01T06:39:16.300Z,22.00
2018-07-01T06:41:18.301Z,22.00
2018-07-01T06:43:20.255Z,22.00
2018-07-01T06:45:22.231Z,22.00
2018-07-01T06:47:24.253Z,22.00
2018-07-01T06:49:26.298Z,22.00
2018-07-01T06:51:28.233Z,22.00
2018-07-01T06:53:30.221Z,22.00
2018-07-01T06:55:32.167Z,21.90
2018-07-01T06:57:34.162Z,21.40
2018-07-01T06:59:36.139Z,21.10
2018-07-01T07:01:38.142Z,20.90
2018-07-01T07:03:40.102Z,20.80
2018-07-01T07:07:44.310Z,20.70
2018-07-01T07:09:46.271Z,20.70
2018-07-01T07:11:48.238Z,20.60
2018-07-01T07:13:50.218Z,20.70
2018-07-01T07:15:52.198Z,20.70
2018-07-01T07:17:54.197Z,20.70
2018-07-01T07:19:56.179Z,20.80
2018-07-01T07:21:58.182Z,20.70
2018-07-01T07:24:00.146Z,20.80
2018-07-01T07:26:02.119Z,20.80
2018-07-01T07:28:04.108Z,20.80
2018-07-01T07:30:06.049Z,20.80
2018-07-01T07:32:08.047Z,20.70
2018-07-01T07:34:10.030Z,20.70
2018-07-01T07:36:11.975Z,20.80
2018-07-01T07:38:13.970Z,20.70
2018-07-01T07:40:15.928Z,20.70
2018-07-01T07:42:17.894Z,20.70
2018-07-01T07:44:19.881Z,20.80
2018-07-01T07:46:21.856Z,20.80
2018-07-01T07:48:23.846Z,20.90
2018-07-01T07:50:25.831Z,20.90
2018-07-01T07:52:27.802Z,21.00
2018-07-01T07:54:29.773Z,21.00
2018-07-01T07:56:31.786Z,21.00
2018-07-01T07:58:33.756Z,21.10
2018-07-01T08:00:35.732Z,21.10
2018-07-01T08:02:37.704Z,21.20
2018-07-01T08:04:39.678Z,21.10
2018-07-01T08:06:41.656Z,21.20
2018-07-01T08:08:43.628Z,21.10
2018-07-01T08:10:45.594Z,21.20
2018-07-01T08:12:47.651Z,21.30
2018-07-01T08:14:49.931Z,21.40
2018-07-01T08:16:51.934Z,21.40
2018-07-01T08:18:53.902Z,21.50
2018-07-01T08:20:55.877Z,21.50
2018-07-01T08:22:57.845Z,21.50
2018-07-01T08:24:59.810Z,21.50
2018-07-01T08:27:01.768Z,21.50
2018-07-01T08:29:03.763Z,21.60
2018-07-01T08:31:05.908Z,21.60
2018-07-01T08:33:07.883Z,21.60
2018-07-01T08:35:09.836Z,21.50
2018-07-01T08:37:11.816Z,21.50
2018-07-01T08:41:16.033Z,21.50
2018-07-01T08:43:18.003Z,21.60
2018-07-01T08:45:19.973Z,21.60
2018-07-01T08:47:21.919Z,21.60
2018-07-01T08:49:23.901Z,21.60
2018-07-01T08:51:25.877Z,21.60
2018-07-01T08:53:27.825Z,21.60
2018-07-01T08:55:29.801Z,21.60
2018-07-01T08:57:31.772Z,21.70
2018-07-01T08:59:33.725Z,21.70
2018-07-01T09:01:35.709Z,21.70
2018-07-01T09:03:37.681Z,21.70
2018-07-01T09:05:39.661Z,21.70
2018-07-01T09:07:41.645Z,21.70
2018-07-01T09:09:43.609Z,21.80
2018-07-01T09:11:45.584Z,21.80
2018-07-01T09:13:47.579Z,21.80
2018-07-01T09:15:49.545Z,21.80
2018-07-01T09:17:51.507Z,21.70
2018-07-01T09:19:53.477Z,21.70
2018-07-01T09:21:55.441Z,21.80
2018-07-01T09:23:57.418Z,21.80
2018-07-01T09:25:59.404Z,21.90
2018-07-01T09:28:01.389Z,21.90
2018-07-01T09:30:03.369Z,22.00
2018-07-01T09:32:05.321Z,22.10
2018-07-01T09:34:07.305Z,22.20
2018-07-01T09:36:09.272Z,22.30
2018-07-01T09:38:11.228Z,22.30
2018-07-01T09:40:13.201Z,22.20
2018-07-01T09:42:15.176Z,22.20
2018-07-01T09:44:17.182Z,22.30
2018-07-01T09:46:19.140Z,22.30
2018-07-01T09:48:21.123Z,22.30
2018-07-01T09:50:23.115Z,22.20
2018-07-01T09:52:25.476Z,22.20
2018-07-01T09:54:27.448Z,22.20
2018-07-01T09:56:29.394Z,22.20
2018-07-01T10:00:33.647Z,22.20
2018-07-01T10:02:35.631Z,22.20
2018-07-01T10:04:37.605Z,22.20
2018-07-01T10:06:39.593Z,22.20
2018-07-01T10:08:41.568Z,22.30
2018-07-01T10:10:43.536Z,22.20
2018-07-01T10:12:45.504Z,22.10
2018-07-01T10:14:47.498Z,22.20
2018-07-01T10:16:49.465Z,22.20
2018-07-01T10:18:51.466Z,22.10
2018-07-01T10:20:53.397Z,22.20
2018-07-01T10:22:55.341Z,22.20
2018-07-01T10:24:57.323Z,22.20
2018-07-01T10:26:59.291Z,22.20
2018-07-01T10:29:01.256Z,22.20
2018-07-01T10:31:03.217Z,22.20
2018-07-01T10:33:05.190Z,22.20
2018-07-01T10:35:07.143Z,22.30
2018-07-01T10:37:09.120Z,22.30
2018-07-01T10:41:13.334Z,22.30
2018-07-01T10:43:15.287Z,22.30
2018-07-01T10:45:17.253Z,22.40
2018-07-01T10:47:19.235Z,22.40
2018-07-01T10:49:21.216Z,22.40
2018-07-01T10:51:23.219Z,22.40
2018-07-01T10:53:25.411Z,22.40
2018-07-01T10:55:27.376Z,22.50
2018-07-01T10:57:29.380Z,22.40
2018-07-01T10:59:31.327Z,22.50
2018-07-01T11:01:33.281Z,22.50
2018-07-01T11:03:35.240Z,22.60
2018-07-01T11:05:37.216Z,22.50
2018-07-01T11:07:39.182Z,22.60
2018-07-01T11:09:41.148Z,22.60
2018-07-01T11:11:43.185Z,22.60
2018-07-01T11:13:46.053Z,22.60
2018-07-01T11:15:48.025Z,22.60
2018-07-01T11:17:49.987Z,22.60
2018-07-01T11:19:51.961Z,22.60
2018-07-01T11:21:53.913Z,22.60
2018-07-01T11:23:55.881Z,22.60
2018-07-01T11:25:57.851Z,22.70
2018-07-01T11:27:59.822Z,22.70
2018-07-01T11:30:01.821Z,22.70
2018-07-01T11:32:03.782Z,22.70
2018-07-01T11:34:05.759Z,22.80
2018-07-01T11:36:07.736Z,22.70
2018-07-01T11:38:09.766Z,22.80
2018-07-01T11:40:11.692Z,22.70
2018-07-01T11:42:13.652Z,22.70
2018-07-01T11:44:15.630Z,22.70
2018-07-01T11:46:17.610Z,22.70
2018-07-01T11:48:19.573Z,22.70
2018-07-01T11:50:21.534Z,22.80
2018-07-01T11:52:23.570Z,22.80
2018-07-01T11:54:25.496Z,22.80
2018-07-01T11:56:27.443Z,22.90
2018-07-01T11:58:29.414Z,22.90
2018-07-01T12:00:31.382Z,22.90
2018-07-01T12:02:33.361Z,22.90
2018-07-01T12:06:37.567Z,22.80
2018-07-01T12:08:39.650Z,22.80
2018-07-01T12:10:41.590Z,22.90
2018-07-01T12:12:43.550Z,22.90
2018-07-01T12:14:45.517Z,22.80
2018-07-01T12:16:47.501Z,22.80
2018-07-01T12:18:49.480Z,22.80
2018-07-01T12:20:51.440Z,22.90
2018-07-01T12:22:53.632Z,22.90
2018-07-01T12:24:55.606Z,22.80
2018-07-01T12:26:57.587Z,22.80
2018-07-01T12:28:59.542Z,22.70
2018-07-01T12:31:01.476Z,22.70
2018-07-01T12:33:03.456Z,22.80
2018-07-01T12:35:05.417Z,22.80
2018-07-01T12:37:07.406Z,22.80
2018-07-01T12:39:09.389Z,22.70
2018-07-01T12:41:11.364Z,22.70
2018-07-01T12:43:13.326Z,22.80
2018-07-01T12:45:15.412Z,22.70
2018-07-01T12:47:17.340Z,22.80
2018-07-01T12:49:19.337Z,22.80
2018-07-01T12:51:21.296Z,22.80
2018-07-01T12:53:23.277Z,22.70
2018-07-01T12:55:25.259Z,22.70
2018-07-01T12:57:27.204Z,22.80
2018-07-01T12:59:29.190Z,22.80
2018-07-01T13:01:31.144Z,22.70
2018-07-01T13:03:33.074Z,22.70
2018-07-01T13:05:35.038Z,22.70
2018-07-01T13:07:37.029Z,22.70
2018-07-01T13:09:38.990Z,22.70
2018-07-01T13:11:40.984Z,22.60
2018-07-01T13:13:42.940Z,22.60
2018-07-01T13:15:44.907Z,22.60
2018-07-01T13:17:46.860Z,22.60
2018-07-01T13:19:48.836Z,22.60
2018-07-01T13:21:50.850Z,22.60
2018-07-01T13:23:52.809Z,22.60
2018-07-01T13:25:54.790Z,22.60
2018-07-01T13:27:56.741Z,22.60
2018-07-01T13:29:58.714Z,22.60
2018-07-01T13:32:00.699Z,22.50
2018-07-01T13:34:02.673Z,22.50
2018-07-01T13:36:04.631Z,22.60
2018-07-01T13:38:06.589Z,22.60
2018-07-01T13:40:08.547Z,22.60
2018-07-01T13:42:10.536Z,22.50
2018-07-01T13:44:12.506Z,22.50
2018-07-01T13:46:14.500Z,22.50
2018-07-01T13:50:18.729Z,22.80
2018-07-01T13:52:20.688Z,22.70
2018-07-01T13:54:22.660Z,22.70
2018-07-01T13:56:24.646Z,22.60
2018-07-01T13:58:26.607Z,22.70
2018-07-01T14:00:28.630Z,22.70
2018-07-01T14:02:30.896Z,22.70
2018-07-01T14:04:32.846Z,22.70
2018-07-01T14:06:34.823Z,22.70
2018-07-01T14:08:36.799Z,22.70
2018-07-01T14:10:38.718Z,22.70
2018-07-01T14:12:40.700Z,22.70
2018-07-01T14:14:42.650Z,22.80
2018-07-01T14:16:44.604Z,22.80
2018-07-01T14:18:46.589Z,22.70
2018-07-01T14:20:48.535Z,22.70
2018-07-01T14:22:50.500Z,22.70
2018-07-01T14:24:52.463Z,22.80
2018-07-01T14:26:54.502Z,22.80
2018-07-01T14:28:56.424Z,22.80
2018-07-01T14:30:58.376Z,22.80
2018-07-01T14:33:00.340Z,22.80
2018-07-01T14:35:02.318Z,22.80
2018-07-01T14:37:04.275Z,22.80
2018-07-01T14:39:06.235Z,22.80
2018-07-01T14:41:08.188Z,22.70
2018-07-01T14:43:10.155Z,22.80
2018-07-01T14:45:12.108Z,22.80
2018-07-01T14:47:14.080Z,22.70
2018-07-01T14:49:16.091Z,22.80
2018-07-01T14:51:18.027Z,22.80
2018-07-01T14:53:19.986Z,22.70
2018-07-01T14:55:21.936Z,22.70
2018-07-01T14:57:23.898Z,22.70
2018-07-01T14:59:25.885Z,22.70
2018-07-01T15:01:27.856Z,22.70
2018-07-01T15:03:30.148Z,22.70
2018-07-01T15:05:32.130Z,22.80
2018-07-01T15:07:34.099Z,22.70
2018-07-01T15:09:36.070Z,22.70
2018-07-01T15:11:38.029Z,22.80
2018-07-01T15:13:39.976Z,22.70
2018-07-01T15:15:41.954Z,22.80
2018-07-01T15:17:43.922Z,22.70
2018-07-01T15:19:45.891Z,22.70
2018-07-01T15:21:47.842Z,22.70
2018-07-01T15:23:49.822Z,22.70
2018-07-01T15:25:51.796Z,22.60
2018-07-01T15:27:53.773Z,22.70
2018-07-01T15:29:55.755Z,22.70
2018-07-01T15:31:57.720Z,22.70
2018-07-01T15:33:59.675Z,22.60
2018-07-01T15:36:01.656Z,22.60
2018-07-01T15:38:03.622Z,22.70
2018-07-01T15:40:05.586Z,22.70
2018-07-01T15:42:07.571Z,22.70
2018-07-01T15:44:09.563Z,22.60
2018-07-01T15:46:11.507Z,22.70
2018-07-01T15:48:13.483Z,22.70
2018-07-01T15:50:15.482Z,22.70
2018-07-01T15:52:17.451Z,22.70
2018-07-01T15:54:19.430Z,22.60
2018-07-01T15:56:21.440Z,22.60
2018-07-01T15:58:23.421Z,22.60
2018-07-01T16:00:25.374Z,22.60
2018-07-01T16:02:27.440Z,22.60
2018-07-01T16:04:29.362Z,22.60
2018-07-01T16:06:31.342Z,22.60
2018-07-01T16:08:33.316Z,22.60
2018-07-01T16:10:35.296Z,22.50
2018-07-01T16:12:37.262Z,22.60
2018-07-01T16:14:39.252Z,22.60
2018-07-01T16:18:43.456Z,22.60
2018-07-01T16:20:45.415Z,22.60
2018-07-01T16:22:47.388Z,22.50
2018-07-01T16:24:49.366Z,22.60
2018-07-01T16:26:51.336Z,22.60
2018-07-01T16:28:53.293Z,22.60
2018-07-01T16:30:55.280Z,22.60
2018-07-01T16:32:57.253Z,22.60
2018-07-01T16:34:59.207Z,22.60
2018-07-01T16:37:01.186Z,22.60
2018-07-01T16:39:03.153Z,22.60
2018-07-01T16:41:05.147Z,22.60
2018-07-01T16:43:07.110Z,22.60
2018-07-01T16:47:11.306Z,22.50
2018-07-01T16:49:13.282Z,22.50
2018-07-01T16:51:15.256Z,22.60
2018-07-01T16:53:17.239Z,22.60
2018-07-01T16:55:19.240Z,22.70
2018-07-01T16:57:21.200Z,22.60
2018-07-01T16:59:23.172Z,22.60
2018-07-01T17:01:25.117Z,22.70
2018-07-01T17:03:27.077Z,22.70
2018-07-01T17:05:29.159Z,22.60
2018-07-01T17:07:30.982Z,22.70
2018-07-01T17:09:32.957Z,22.70
2018-07-01T17:11:34.915Z,22.60
2018-07-01T17:13:36.932Z,22.60
2018-07-01T17:15:39.232Z,22.60
2018-07-01T17:17:41.205Z,22.60
2018-07-01T17:19:43.192Z,22.50
2018-07-01T17:21:45.127Z,22.50
2018-07-01T17:23:47.084Z,22.50
2018-07-01T17:25:49.069Z,22.50
2018-07-01T17:27:51.048Z,22.50
2018-07-01T17:29:53.117Z,22.50
2018-07-01T17:31:55.046Z,22.40
2018-07-01T17:33:57.030Z,22.40
2018-07-01T17:38:01.252Z,22.40
2018-07-01T17:40:03.277Z,22.40
2018-07-01T17:42:05.229Z,22.30
2018-07-01T17:44:07.203Z,22.40
2018-07-01T17:46:09.195Z,22.40
2018-07-01T17:48:11.143Z,22.40
2018-07-01T17:50:13.108Z,22.40
2018-07-01T17:52:15.078Z,22.50
2018-07-01T17:54:17.062Z,22.40
2018-07-01T17:56:19.025Z,22.40
2018-07-01T17:58:20.987Z,22.40
2018-07-01T18:00:22.956Z,22.40
2018-07-01T18:02:24.918Z,22.40
2018-07-01T18:04:26.886Z,22.40
2018-07-01T18:06:28.862Z,22.40
2018-07-01T18:08:30.828Z,22.30
2018-07-01T18:10:32.819Z,22.30
2018-07-01T18:12:34.780Z,22.30
2018-07-01T18:14:36.750Z,22.30
2018-07-01T18:16:38.734Z,22.30
2018-07-01T18:20:42.931Z,22.20
2018-07-01T18:23:18.230Z,22.20
2018-07-01T18:24:58.062Z,22.30
2018-07-01T18:26:48.858Z,22.20
2018-07-01T18:29:02.567Z,22.30
2018-07-01T18:30:52.814Z,22.30
2018-07-01T18:32:54.763Z,22.30
2018-07-01T18:34:56.744Z,22.30
2018-07-01T18:36:59.013Z,22.30
2018-07-01T18:39:01.023Z,22.30
2018-07-01T18:41:02.932Z,22.20
2018-07-01T18:43:04.862Z,22.20
2018-07-01T18:45:06.852Z,22.20
2018-07-01T18:47:08.824Z,22.20
2018-07-01T18:49:10.796Z,22.10
2018-07-01T18:53:14.769Z,22.10
2018-07-01T18:55:16.738Z,22.10
2018-07-01T18:57:18.708Z,22.10
2018-07-01T18:59:20.776Z,22.10
2018-07-01T19:03:25.041Z,22.00
2018-07-01T19:05:27.036Z,22.00
2018-07-01T19:07:28.994Z,21.90
2018-07-01T19:09:30.958Z,21.80
2018-07-01T19:11:32.933Z,21.80
2018-07-01T19:13:35.415Z,21.70
2018-07-01T19:15:37.386Z,21.60
2018-07-01T19:17:39.339Z,21.60
2018-07-01T19:19:41.312Z,21.50
2018-07-01T19:21:43.298Z,21.50
2018-07-01T19:23:45.269Z,21.50
2018-07-01T19:25:47.270Z,21.40
2018-07-01T19:27:49.237Z,21.40
2018-07-01T19:29:51.287Z,21.30
2018-07-01T19:31:53.265Z,21.20
2018-07-01T19:33:55.278Z,21.10
2018-07-01T19:35:57.218Z,21.10
2018-07-01T19:37:59.174Z,21.00
2018-07-01T19:40:01.142Z,21.00
2018-07-01T19:42:03.100Z,20.90
2018-07-01T19:44:05.072Z,20.90
2018-07-01T19:46:07.048Z,20.80
2018-07-01T19:48:09.006Z,20.70
2018-07-01T19:50:11.054Z,20.70
2018-07-01T19:54:26.226Z,20.50
2018-07-01T19:56:28.160Z,20.50
2018-07-01T19:58:30.116Z,20.40
2018-07-01T20:00:32.135Z,20.50
2018-07-01T20:02:34.093Z,20.80
2018-07-01T20:04:36.056Z,21.10
2018-07-01T20:06:38.412Z,21.40
2018-07-01T20:08:40.494Z,21.50
2018-07-01T20:10:42.488Z,21.70
2018-07-01T20:12:44.470Z,21.80
2018-07-01T20:14:46.424Z,21.80
2018-07-01T20:16:48.407Z,21.90
2018-07-01T20:18:50.364Z,21.90
2018-07-01T20:20:53.208Z,21.90
2018-07-01T20:22:55.220Z,22.00
2018-07-01T20:24:57.191Z,21.90
2018-07-01T20:26:59.158Z,22.00
2018-07-01T20:29:01.813Z,22.00
2018-07-01T20:31:03.792Z,22.10
2018-07-01T20:33:05.798Z,22.00
2018-07-01T20:35:07.769Z,22.10
2018-07-01T20:37:09.752Z,22.10
2018-07-01T20:39:11.745Z,22.10
2018-07-01T20:41:13.740Z,22.10
2018-07-01T20:43:15.697Z,22.10
2018-07-01T20:47:19.933Z,22.10
2018-07-01T20:49:21.917Z,22.10
2018-07-01T20:51:23.917Z,22.10
2018-07-01T20:53:25.886Z,22.10
2018-07-01T20:55:27.863Z,22.20
2018-07-01T20:57:29.855Z,22.20
2018-07-01T20:59:31.825Z,22.20
2018-07-01T21:03:36.065Z,22.20
2018-07-01T21:05:38.135Z,22.20
2018-07-01T21:07:40.079Z,22.20
2018-07-01T21:09:42.052Z,22.20
2018-07-01T21:11:44.068Z,22.20
2018-07-01T21:13:46.025Z,22.30
2018-07-01T21:15:48.013Z,22.30
2018-07-01T21:17:50.053Z,22.30
2018-07-01T21:19:51.986Z,22.30
2018-07-01T21:21:53.929Z,22.30
2018-07-01T21:23:55.923Z,22.30
2018-07-01T21:25:57.901Z,22.30
2018-07-01T21:27:59.872Z,22.30
2018-07-01T21:30:01.853Z,22.30
2018-07-01T21:32:03.836Z,22.30
2018-07-01T21:34:05.809Z,22.30
2018-07-01T21:36:07.806Z,22.30
2018-07-01T21:38:09.762Z,22.30
2018-07-01T21:40:11.750Z,22.30
2018-07-01T21:42:13.718Z,22.30
2018-07-01T21:44:15.704Z,22.50
2018-07-01T21:46:17.681Z,22.30
2018-07-01T21:48:19.650Z,22.30
2018-07-01T21:50:21.641Z,22.30
2018-07-01T21:52:23.609Z,22.30
2018-07-01T21:54:25.937Z,22.30
2018-07-01T21:58:30.154Z,22.30
2018-07-01T22:00:32.197Z,22.30
2018-07-01T22:02:34.126Z,22.30
2018-07-01T22:04:36.095Z,22.30
2018-07-01T22:06:38.089Z,22.30
2018-07-01T22:08:40.070Z,22.30
2018-07-01T22:10:42.039Z,22.30
2018-07-01T22:12:44.018Z,22.30
2018-07-01T22:14:46.331Z,22.30
2018-07-01T22:16:48.633Z,22.30
2018-07-01T22:18:50.884Z,22.30
2018-07-01T22:20:52.868Z,22.30
2018-07-01T22:22:54.861Z,22.30
2018-07-01T22:24:57.108Z,22.30
2018-07-01T22:26:59.116Z,22.30
2018-07-01T22:29:01.089Z,22.30
2018-07-01T22:31:03.448Z,22.30
2018-07-01T22:33:05.442Z,22.30
2018-07-01T22:35:07.414Z,22.40
2018-07-01T22:37:09.437Z,22.30
2018-07-01T22:39:11.390Z,22.30
2018-07-01T22:41:13.356Z,22.30
2018-07-01T22:43:15.324Z,22.20
2018-07-01T22:45:17.295Z,22.30
2018-07-01T22:47:19.260Z,22.30
2018-07-01T22:49:21.229Z,22.20
2018-07-01T22:51:23.183Z,22.20
2018-07-01T22:53:25.210Z,22.20
2018-07-01T22:55:27.498Z,22.20
2018-07-01T22:57:29.476Z,22.30
2018-07-01T22:59:31.536Z,22.20
2018-07-01T23:01:33.504Z,22.20
2018-07-01T23:03:35.494Z,22.20
2018-07-01T23:05:37.481Z,22.20
2018-07-01T23:07:39.450Z,22.20
2018-07-01T23:09:41.694Z,22.20
2018-07-01T23:11:43.670Z,22.20
2018-07-01T23:13:45.630Z,22.20
2018-07-01T23:15:47.990Z,22.20
2018-07-01T23:17:49.950Z,22.20
2018-07-01T23:19:51.936Z,22.20
2018-07-01T23:21:53.916Z,22.20
2018-07-01T23:23:55.898Z,22.20
2018-07-01T23:25:57.876Z,22.20
2018-07-01T23:27:59.844Z,22.20
2018-07-01T23:30:01.817Z,22.20
2018-07-01T23:32:03.804Z,22.20
2018-07-01T23:34:05.764Z,22.20
2018-07-01T23:36:07.749Z,22.20
2018-07-01T23:38:10.056Z,22.20
2018-07-01T23:40:12.025Z,22.20
2018-07-01T23:42:14.002Z,22.20
2018-07-01T23:44:15.986Z,22.10
2018-07-01T23:46:17.976Z,22.10
2018-07-01T23:48:19.949Z,22.20
2018-07-01T23:50:21.927Z,22.10
2018-07-01T23:52:23.914Z,22.20
2018-07-01T23:54:25.882Z,22.10
2018-07-01T23:56:27.847Z,22.10
2018-07-01T23:58:30.179Z,22.10
